sensor_id;sensor_type;location;lat;lon;timestamp;P1;durP1;ratioP1;P2;durP2;ratioP2
75012;SDS011;63567;49.956;20.130;2023-04-09T00:01:06;58.63;;;28.33;;
75012;SDS011;63567;49.956;20.130;2023-04-09T00:03:35;57.97;;;25.55;;
75012;SDS011;63567;49.956;20.130;2023-04-09T00:06:01;50.90;;;24.73;;
75012;SDS011;63567;49.956;20.130;2023-04-09T00:08:27;50.03;;;23.73;;
75012;SDS011;63567;49.956;20.130;2023-04-09T00:10:52;57.20;;;25.00;;
75012;SDS011;63567;49.956;20.130;2023-04-09T00:13:19;50.78;;;23.83;;
75012;SDS011;63567;49.956;20.130;2023-04-09T00:15:45;48.35;;;23.27;;
75012;SDS011;63567;49.956;20.130;2023-04-09T00:18:11;47.05;;;22.42;;
75012;SDS011;63567;49.956;20.130;2023-04-09T00:20:37;44.55;;;22.65;;
75012;SDS011;63567;49.956;20.130;2023-04-09T00:23:02;46.17;;;20.30;;
75012;SDS011;63567;49.956;20.130;2023-04-09T00:25:27;46.88;;;21.50;;
75012;SDS011;63567;49.956;20.130;2023-04-09T00:27:53;46.00;;;22.25;;
75012;SDS011;63567;49.956;20.130;2023-04-09T00:30:19;46.42;;;22.30;;
75012;SDS011;63567;49.956;20.130;2023-04-09T00:32:45;45.10;;;21.30;;
75012;SDS011;63567;49.956;20.130;2023-04-09T00:35:10;48.97;;;22.30;;
75012;SDS011;63567;49.956;20.130;2023-04-09T00:37:36;46.50;;;21.92;;
75012;SDS011;63567;49.956;20.130;2023-04-09T00:40:01;58.95;;;24.75;;
75012;SDS011;63567;49.956;20.130;2023-04-09T00:42:30;51.50;;;23.75;;
75012;SDS011;63567;49.956;20.130;2023-04-09T00:44:56;48.67;;;21.80;;
75012;SDS011;63567;49.956;20.130;2023-04-09T00:47:22;50.72;;;21.60;;
75012;SDS011;63567;49.956;20.130;2023-04-09T00:49:47;45.93;;;21.43;;
75012;SDS011;63567;49.956;20.130;2023-04-09T00:52:13;44.95;;;21.55;;
75012;SDS011;63567;49.956;20.130;2023-04-09T00:54:38;50.87;;;21.93;;
75012;SDS011;63567;49.956;20.130;2023-04-09T00:57:03;41.65;;;20.73;;
75012;SDS011;63567;49.956;20.130;2023-04-09T00:59:29;45.00;;;20.07;;
75012;SDS011;63567;49.956;20.130;2023-04-09T01:01:55;41.05;;;20.05;;
75012;SDS011;63567;49.956;20.130;2023-04-09T01:04:20;43.93;;;20.60;;
75012;SDS011;63567;49.956;20.130;2023-04-09T01:09:56;44.20;;;21.70;;
75012;SDS011;63567;49.956;20.130;2023-04-09T01:12:37;43.08;;;22.02;;
75012;SDS011;63567;49.956;20.130;2023-04-09T01:15:17;48.08;;;23.17;;
75012;SDS011;63567;49.956;20.130;2023-04-09T01:17:51;48.42;;;21.20;;
75012;SDS011;63567;49.956;20.130;2023-04-09T01:20:31;57.90;;;25.17;;
75012;SDS011;63567;49.956;20.130;2023-04-09T01:28:32;52.92;;;24.75;;
75012;SDS011;63567;49.956;20.130;2023-04-09T01:31:06;57.33;;;26.40;;
75012;SDS011;63567;49.956;20.130;2023-04-09T01:33:37;60.47;;;26.60;;
75012;SDS011;63567;49.956;20.130;2023-04-09T01:36:03;57.53;;;25.92;;
75012;SDS011;63567;49.956;20.130;2023-04-09T01:38:30;60.13;;;26.83;;
75012;SDS011;63567;49.956;20.130;2023-04-09T01:40:59;56.15;;;25.63;;
75012;SDS011;63567;49.956;20.130;2023-04-09T01:43:27;56.40;;;25.00;;
75012;SDS011;63567;49.956;20.130;2023-04-09T01:45:53;57.83;;;25.73;;
75012;SDS011;63567;49.956;20.130;2023-04-09T01:48:19;55.40;;;25.40;;
75012;SDS011;63567;49.956;20.130;2023-04-09T01:50:45;55.50;;;25.70;;
75012;SDS011;63567;49.956;20.130;2023-04-09T01:53:11;52.50;;;23.58;;
75012;SDS011;63567;49.956;20.130;2023-04-09T01:55:37;50.15;;;23.83;;
75012;SDS011;63567;49.956;20.130;2023-04-09T01:58:02;58.05;;;24.80;;
75012;SDS011;63567;49.956;20.130;2023-04-09T02:00:30;55.13;;;23.02;;
75012;SDS011;63567;49.956;20.130;2023-04-09T02:05:28;56.33;;;26.10;;
75012;SDS011;63567;49.956;20.130;2023-04-09T02:08:00;53.63;;;24.70;;
75012;SDS011;63567;49.956;20.130;2023-04-09T02:10:28;57.15;;;24.92;;
75012;SDS011;63567;49.956;20.130;2023-04-09T02:12:55;67.75;;;28.42;;
75012;SDS011;63567;49.956;20.130;2023-04-09T02:15:24;62.35;;;28.20;;
75012;SDS011;63567;49.956;20.130;2023-04-09T02:17:52;56.17;;;24.90;;
75012;SDS011;63567;49.956;20.130;2023-04-09T02:20:18;60.00;;;27.00;;
75012;SDS011;63567;49.956;20.130;2023-04-09T02:22:44;56.13;;;22.67;;
75012;SDS011;63567;49.956;20.130;2023-04-09T02:25:10;58.15;;;25.60;;
75012;SDS011;63567;49.956;20.130;2023-04-09T02:27:36;52.05;;;23.80;;
75012;SDS011;63567;49.956;20.130;2023-04-09T02:30:01;55.23;;;24.57;;
75012;SDS011;63567;49.956;20.130;2023-04-09T02:32:28;50.78;;;23.70;;
75012;SDS011;63567;49.956;20.130;2023-04-09T02:34:53;53.00;;;23.30;;
75012;SDS011;63567;49.956;20.130;2023-04-09T02:37:18;50.57;;;24.07;;
75012;SDS011;63567;49.956;20.130;2023-04-09T02:39:44;54.80;;;24.53;;
75012;SDS011;63567;49.956;20.130;2023-04-09T02:42:09;53.60;;;24.63;;
75012;SDS011;63567;49.956;20.130;2023-04-09T02:44:34;53.13;;;23.43;;
75012;SDS011;63567;49.956;20.130;2023-04-09T02:47:00;55.83;;;24.77;;
75012;SDS011;63567;49.956;20.130;2023-04-09T02:49:25;55.53;;;24.98;;
75012;SDS011;63567;49.956;20.130;2023-04-09T02:51:50;51.78;;;24.42;;
75012;SDS011;63567;49.956;20.130;2023-04-09T02:54:16;46.67;;;22.30;;
75012;SDS011;63567;49.956;20.130;2023-04-09T02:56:41;58.22;;;25.02;;
75012;SDS011;63567;49.956;20.130;2023-04-09T02:59:06;57.07;;;24.63;;
75012;SDS011;63567;49.956;20.130;2023-04-09T03:01:32;55.97;;;24.37;;
75012;SDS011;63567;49.956;20.130;2023-04-09T03:03:57;53.37;;;24.70;;
75012;SDS011;63567;49.956;20.130;2023-04-09T03:06:22;49.07;;;23.17;;
75012;SDS011;63567;49.956;20.130;2023-04-09T03:08:48;53.23;;;24.70;;
75012;SDS011;63567;49.956;20.130;2023-04-09T03:11:13;50.25;;;24.10;;
75012;SDS011;63567;49.956;20.130;2023-04-09T03:13:39;49.90;;;23.88;;
75012;SDS011;63567;49.956;20.130;2023-04-09T03:16:05;55.78;;;24.27;;
75012;SDS011;63567;49.956;20.130;2023-04-09T03:18:30;48.10;;;23.27;;
75012;SDS011;63567;49.956;20.130;2023-04-09T03:20:56;53.17;;;23.63;;
75012;SDS011;63567;49.956;20.130;2023-04-09T03:23:21;48.17;;;24.03;;
75012;SDS011;63567;49.956;20.130;2023-04-09T03:25:46;50.90;;;22.50;;
75012;SDS011;63567;49.956;20.130;2023-04-09T03:28:12;53.20;;;22.87;;
75012;SDS011;63567;49.956;20.130;2023-04-09T03:30:37;50.60;;;23.60;;
75012;SDS011;63567;49.956;20.130;2023-04-09T03:33:02;53.73;;;22.80;;
75012;SDS011;63567;49.956;20.130;2023-04-09T03:35:28;45.20;;;21.43;;
75012;SDS011;63567;49.956;20.130;2023-04-09T03:37:53;51.73;;;24.37;;
75012;SDS011;63567;49.956;20.130;2023-04-09T03:40:18;51.53;;;23.40;;
75012;SDS011;63567;49.956;20.130;2023-04-09T03:42:44;49.63;;;23.80;;
75012;SDS011;63567;49.956;20.130;2023-04-09T03:45:09;47.05;;;22.50;;
75012;SDS011;63567;49.956;20.130;2023-04-09T03:47:35;52.25;;;23.48;;
75012;SDS011;63567;49.956;20.130;2023-04-09T03:50:00;51.63;;;23.30;;
75012;SDS011;63567;49.956;20.130;2023-04-09T03:52:26;49.88;;;23.05;;
75012;SDS011;63567;49.956;20.130;2023-04-09T03:54:51;49.60;;;22.00;;
75012;SDS011;63567;49.956;20.130;2023-04-09T03:57:17;52.10;;;23.05;;
75012;SDS011;63567;49.956;20.130;2023-04-09T03:59:42;48.60;;;21.33;;
75012;SDS011;63567;49.956;20.130;2023-04-09T04:02:07;48.63;;;23.07;;
75012;SDS011;63567;49.956;20.130;2023-04-09T04:04:33;51.57;;;24.10;;
75012;SDS011;63567;49.956;20.130;2023-04-09T04:06:58;51.03;;;23.10;;
75012;SDS011;63567;49.956;20.130;2023-04-09T04:09:23;51.50;;;23.38;;
75012;SDS011;63567;49.956;20.130;2023-04-09T04:11:49;60.47;;;28.17;;
75012;SDS011;63567;49.956;20.130;2023-04-09T04:14:14;63.23;;;27.90;;
75012;SDS011;63567;49.956;20.130;2023-04-09T04:16:40;59.22;;;27.67;;
75012;SDS011;63567;49.956;20.130;2023-04-09T04:19:05;60.70;;;25.33;;
75012;SDS011;63567;49.956;20.130;2023-04-09T04:21:31;59.00;;;26.52;;
75012;SDS011;63567;49.956;20.130;2023-04-09T04:23:56;60.50;;;27.07;;
75012;SDS011;63567;49.956;20.130;2023-04-09T04:26:21;59.30;;;26.65;;
75012;SDS011;63567;49.956;20.130;2023-04-09T04:28:47;61.40;;;27.43;;
75012;SDS011;63567;49.956;20.130;2023-04-09T04:31:12;59.53;;;25.73;;
75012;SDS011;63567;49.956;20.130;2023-04-09T04:33:38;57.78;;;27.08;;
75012;SDS011;63567;49.956;20.130;2023-04-09T04:36:05;55.05;;;25.17;;
75012;SDS011;63567;49.956;20.130;2023-04-09T04:38:32;57.25;;;25.58;;
75012;SDS011;63567;49.956;20.130;2023-04-09T04:40:58;56.25;;;24.95;;
75012;SDS011;63567;49.956;20.130;2023-04-09T04:43:24;56.10;;;25.87;;
75012;SDS011;63567;49.956;20.130;2023-04-09T04:45:49;61.27;;;26.67;;
75012;SDS011;63567;49.956;20.130;2023-04-09T04:48:14;56.13;;;27.13;;
75012;SDS011;63567;49.956;20.130;2023-04-09T04:50:40;61.13;;;26.47;;
75012;SDS011;63567;49.956;20.130;2023-04-09T04:53:05;58.10;;;27.80;;
75012;SDS011;63567;49.956;20.130;2023-04-09T04:55:30;65.80;;;29.83;;
75012;SDS011;63567;49.956;20.130;2023-04-09T04:57:56;56.07;;;26.93;;
75012;SDS011;63567;49.956;20.130;2023-04-09T05:00:21;58.23;;;25.87;;
75012;SDS011;63567;49.956;20.130;2023-04-09T05:02:46;59.47;;;27.42;;
75012;SDS011;63567;49.956;20.130;2023-04-09T05:05:12;61.80;;;27.87;;
75012;SDS011;63567;49.956;20.130;2023-04-09T05:07:37;54.63;;;24.98;;
75012;SDS011;63567;49.956;20.130;2023-04-09T05:10:03;57.53;;;27.13;;
75012;SDS011;63567;49.956;20.130;2023-04-09T05:12:30;58.28;;;26.48;;
75012;SDS011;63567;49.956;20.130;2023-04-09T05:14:56;52.75;;;25.52;;
75012;SDS011;63567;49.956;20.130;2023-04-09T05:17:21;55.83;;;25.08;;
75012;SDS011;63567;49.956;20.130;2023-04-09T05:19:51;58.45;;;26.02;;
75012;SDS011;63567;49.956;20.130;2023-04-09T05:22:17;58.40;;;28.15;;
75012;SDS011;63567;49.956;20.130;2023-04-09T05:24:43;59.55;;;26.77;;
75012;SDS011;63567;49.956;20.130;2023-04-09T05:27:08;68.10;;;28.47;;
75012;SDS011;63567;49.956;20.130;2023-04-09T05:29:33;54.78;;;26.38;;
75012;SDS011;63567;49.956;20.130;2023-04-09T05:31:59;58.47;;;27.05;;
75012;SDS011;63567;49.956;20.130;2023-04-09T05:34:24;54.20;;;25.92;;
75012;SDS011;63567;49.956;20.130;2023-04-09T05:36:51;60.67;;;26.92;;
75012;SDS011;63567;49.956;20.130;2023-04-09T05:39:16;56.13;;;26.73;;
75012;SDS011;63567;49.956;20.130;2023-04-09T05:41:42;56.80;;;27.03;;
75012;SDS011;63567;49.956;20.130;2023-04-09T05:44:08;56.30;;;25.08;;
75012;SDS011;63567;49.956;20.130;2023-04-09T05:46:34;53.95;;;25.77;;
75012;SDS011;63567;49.956;20.130;2023-04-09T05:49:00;54.07;;;26.33;;
75012;SDS011;63567;49.956;20.130;2023-04-09T05:51:25;52.40;;;23.77;;
75012;SDS011;63567;49.956;20.130;2023-04-09T05:53:51;53.08;;;25.30;;
75012;SDS011;63567;49.956;20.130;2023-04-09T05:56:16;54.17;;;26.77;;
75012;SDS011;63567;49.956;20.130;2023-04-09T05:58:42;59.05;;;26.63;;
75012;SDS011;63567;49.956;20.130;2023-04-09T06:01:07;56.63;;;26.38;;
75012;SDS011;63567;49.956;20.130;2023-04-09T06:03:34;54.03;;;26.38;;
75012;SDS011;63567;49.956;20.130;2023-04-09T06:05:59;60.88;;;29.73;;
75012;SDS011;63567;49.956;20.130;2023-04-09T06:08:25;60.80;;;30.88;;
75012;SDS011;63567;49.956;20.130;2023-04-09T06:10:50;55.53;;;27.45;;
75012;SDS011;63567;49.956;20.130;2023-04-09T06:13:15;61.97;;;29.67;;
75012;SDS011;63567;49.956;20.130;2023-04-09T06:15:41;63.97;;;31.20;;
75012;SDS011;63567;49.956;20.130;2023-04-09T06:18:06;62.38;;;30.98;;
75012;SDS011;63567;49.956;20.130;2023-04-09T06:20:31;65.33;;;30.13;;
75012;SDS011;63567;49.956;20.130;2023-04-09T06:22:57;59.85;;;29.55;;
75012;SDS011;63567;49.956;20.130;2023-04-09T06:25:22;55.37;;;27.87;;
75012;SDS011;63567;49.956;20.130;2023-04-09T06:27:48;58.60;;;29.35;;
75012;SDS011;63567;49.956;20.130;2023-04-09T06:30:13;59.47;;;28.58;;
75012;SDS011;63567;49.956;20.130;2023-04-09T06:32:39;52.00;;;26.60;;
75012;SDS011;63567;49.956;20.130;2023-04-09T06:35:05;53.78;;;27.75;;
75012;SDS011;63567;49.956;20.130;2023-04-09T06:37:32;57.08;;;27.75;;
75012;SDS011;63567;49.956;20.130;2023-04-09T06:39:58;54.75;;;26.67;;
75012;SDS011;63567;49.956;20.130;2023-04-09T06:42:23;51.10;;;26.00;;
75012;SDS011;63567;49.956;20.130;2023-04-09T06:44:48;45.90;;;24.13;;
75012;SDS011;63567;49.956;20.130;2023-04-09T06:47:14;47.78;;;23.52;;
75012;SDS011;63567;49.956;20.130;2023-04-09T06:49:39;46.17;;;24.40;;
75012;SDS011;63567;49.956;20.130;2023-04-09T06:52:05;47.27;;;25.27;;
75012;SDS011;63567;49.956;20.130;2023-04-09T06:54:31;49.90;;;25.08;;
75012;SDS011;63567;49.956;20.130;2023-04-09T06:56:56;45.55;;;22.73;;
75012;SDS011;63567;49.956;20.130;2023-04-09T06:59:22;42.38;;;23.02;;
75012;SDS011;63567;49.956;20.130;2023-04-09T07:01:47;45.63;;;22.88;;
75012;SDS011;63567;49.956;20.130;2023-04-09T07:04:13;42.83;;;22.05;;
75012;SDS011;63567;49.956;20.130;2023-04-09T07:06:38;43.28;;;20.60;;
75012;SDS011;63567;49.956;20.130;2023-04-09T07:09:04;44.20;;;23.60;;
75012;SDS011;63567;49.956;20.130;2023-04-09T07:11:29;40.83;;;20.30;;
75012;SDS011;63567;49.956;20.130;2023-04-09T07:13:55;41.67;;;22.87;;
75012;SDS011;63567;49.956;20.130;2023-04-09T07:16:21;41.90;;;22.08;;
75012;SDS011;63567;49.956;20.130;2023-04-09T07:18:47;42.63;;;22.10;;
75012;SDS011;63567;49.956;20.130;2023-04-09T07:21:12;40.47;;;21.53;;
75012;SDS011;63567;49.956;20.130;2023-04-09T07:23:38;37.55;;;20.70;;
75012;SDS011;63567;49.956;20.130;2023-04-09T07:26:03;36.37;;;22.23;;
75012;SDS011;63567;49.956;20.130;2023-04-09T07:28:30;41.40;;;22.15;;
75012;SDS011;63567;49.956;20.130;2023-04-09T07:30:56;37.40;;;20.75;;
75012;SDS011;63567;49.956;20.130;2023-04-09T07:33:21;39.60;;;21.45;;
75012;SDS011;63567;49.956;20.130;2023-04-09T07:35:47;40.63;;;22.63;;
75012;SDS011;63567;49.956;20.130;2023-04-09T07:38:12;37.27;;;21.33;;
75012;SDS011;63567;49.956;20.130;2023-04-09T07:40:37;39.30;;;23.50;;
75012;SDS011;63567;49.956;20.130;2023-04-09T07:43:03;35.92;;;21.23;;
75012;SDS011;63567;49.956;20.130;2023-04-09T07:45:29;33.83;;;19.55;;
75012;SDS011;63567;49.956;20.130;2023-04-09T07:47:55;34.90;;;19.30;;
75012;SDS011;63567;49.956;20.130;2023-04-09T07:50:20;37.90;;;20.90;;
75012;SDS011;63567;49.956;20.130;2023-04-09T07:52:46;34.85;;;19.40;;
75012;SDS011;63567;49.956;20.130;2023-04-09T07:55:11;34.90;;;19.53;;
75012;SDS011;63567;49.956;20.130;2023-04-09T07:57:36;28.70;;;16.80;;
75012;SDS011;63567;49.956;20.130;2023-04-09T08:00:02;33.60;;;19.63;;
75012;SDS011;63567;49.956;20.130;2023-04-09T08:02:28;33.72;;;19.55;;
75012;SDS011;63567;49.956;20.130;2023-04-09T08:04:54;30.30;;;17.75;;
75012;SDS011;63567;49.956;20.130;2023-04-09T08:07:20;25.35;;;14.73;;
75012;SDS011;63567;49.956;20.130;2023-04-09T08:09:45;27.77;;;16.23;;
75012;SDS011;63567;49.956;20.130;2023-04-09T08:12:11;31.35;;;18.10;;
75012;SDS011;63567;49.956;20.130;2023-04-09T08:14:36;30.10;;;18.03;;
75012;SDS011;63567;49.956;20.130;2023-04-09T08:17:01;25.93;;;14.80;;
75012;SDS011;63567;49.956;20.130;2023-04-09T08:19:27;26.02;;;14.85;;
75012;SDS011;63567;49.956;20.130;2023-04-09T08:21:52;23.48;;;14.07;;
75012;SDS011;63567;49.956;20.130;2023-04-09T08:24:17;26.67;;;15.13;;
75012;SDS011;63567;49.956;20.130;2023-04-09T08:26:43;23.33;;;14.50;;
75012;SDS011;63567;49.956;20.130;2023-04-09T08:29:09;24.58;;;14.68;;
75012;SDS011;63567;49.956;20.130;2023-04-09T08:31:36;22.85;;;14.45;;
75012;SDS011;63567;49.956;20.130;2023-04-09T08:34:02;23.15;;;14.73;;
75012;SDS011;63567;49.956;20.130;2023-04-09T08:36:27;21.80;;;13.80;;
75012;SDS011;63567;49.956;20.130;2023-04-09T08:38:53;22.15;;;13.65;;
75012;SDS011;63567;49.956;20.130;2023-04-09T08:41:21;22.42;;;13.10;;
75012;SDS011;63567;49.956;20.130;2023-04-09T08:43:48;24.45;;;16.27;;
75012;SDS011;63567;49.956;20.130;2023-04-09T08:46:16;25.25;;;15.65;;
75012;SDS011;63567;49.956;20.130;2023-04-09T08:48:45;22.98;;;14.73;;
75012;SDS011;63567;49.956;20.130;2023-04-09T08:53:54;23.48;;;16.17;;
75012;SDS011;63567;49.956;20.130;2023-04-09T08:56:21;24.65;;;16.90;;
75012;SDS011;63567;49.956;20.130;2023-04-09T08:58:47;26.35;;;17.20;;
75012;SDS011;63567;49.956;20.130;2023-04-09T09:01:19;24.83;;;17.27;;
75012;SDS011;63567;49.956;20.130;2023-04-09T09:03:56;22.73;;;16.02;;
75012;SDS011;63567;49.956;20.130;2023-04-09T09:06:25;23.50;;;14.40;;
75012;SDS011;63567;49.956;20.130;2023-04-09T09:11:53;21.73;;;13.77;;
75012;SDS011;63567;49.956;20.130;2023-04-09T09:14:18;18.13;;;13.18;;
75012;SDS011;63567;49.956;20.130;2023-04-09T09:17:01;19.60;;;13.73;;
75012;SDS011;63567;49.956;20.130;2023-04-09T09:19:29;20.00;;;12.48;;
75012;SDS011;63567;49.956;20.130;2023-04-09T09:22:01;17.25;;;11.55;;
75012;SDS011;63567;49.956;20.130;2023-04-09T09:24:27;18.42;;;12.57;;
75012;SDS011;63567;49.956;20.130;2023-04-09T09:26:54;20.33;;;12.85;;
75012;SDS011;63567;49.956;20.130;2023-04-09T09:29:19;18.50;;;11.75;;
75012;SDS011;63567;49.956;20.130;2023-04-09T09:31:49;18.83;;;13.82;;
75012;SDS011;63567;49.956;20.130;2023-04-09T09:34:15;19.35;;;12.98;;
75012;SDS011;63567;49.956;20.130;2023-04-09T09:36:41;20.45;;;14.02;;
75012;SDS011;63567;49.956;20.130;2023-04-09T09:39:08;19.25;;;13.68;;
75012;SDS011;63567;49.956;20.130;2023-04-09T09:41:34;18.30;;;12.43;;
75012;SDS011;63567;49.956;20.130;2023-04-09T09:44:00;17.67;;;11.40;;
75012;SDS011;63567;49.956;20.130;2023-04-09T09:46:27;14.50;;;10.30;;
75012;SDS011;63567;49.956;20.130;2023-04-09T09:48:55;15.45;;;9.73;;
75012;SDS011;63567;49.956;20.130;2023-04-09T09:51:21;15.33;;;10.63;;
75012;SDS011;63567;49.956;20.130;2023-04-09T09:53:51;15.80;;;11.07;;
75012;SDS011;63567;49.956;20.130;2023-04-09T09:56:22;16.20;;;10.65;;
75012;SDS011;63567;49.956;20.130;2023-04-09T09:58:58;15.93;;;11.40;;
75012;SDS011;63567;49.956;20.130;2023-04-09T10:01:30;17.48;;;11.98;;
75012;SDS011;63567;49.956;20.130;2023-04-09T10:03:59;15.85;;;12.35;;
75012;SDS011;63567;49.956;20.130;2023-04-09T10:06:25;14.30;;;10.32;;
75012;SDS011;63567;49.956;20.130;2023-04-09T10:08:51;15.45;;;11.68;;
75012;SDS011;63567;49.956;20.130;2023-04-09T10:11:21;18.50;;;12.70;;
75012;SDS011;63567;49.956;20.130;2023-04-09T10:13:49;18.00;;;12.57;;
75012;SDS011;63567;49.956;20.130;2023-04-09T10:16:17;18.50;;;12.65;;
75012;SDS011;63567;49.956;20.130;2023-04-09T10:18:43;18.13;;;12.82;;
75012;SDS011;63567;49.956;20.130;2023-04-09T10:24:19;17.10;;;12.38;;
75012;SDS011;63567;49.956;20.130;2023-04-09T10:26:45;17.65;;;12.40;;
75012;SDS011;63567;49.956;20.130;2023-04-09T10:29:11;17.75;;;12.20;;
75012;SDS011;63567;49.956;20.130;2023-04-09T10:32:02;14.95;;;9.88;;
75012;SDS011;63567;49.956;20.130;2023-04-09T10:34:31;14.23;;;10.10;;
75012;SDS011;63567;49.956;20.130;2023-04-09T10:37:00;15.60;;;10.52;;
75012;SDS011;63567;49.956;20.130;2023-04-09T10:39:26;18.35;;;12.30;;
75012;SDS011;63567;49.956;20.130;2023-04-09T10:41:55;17.75;;;11.52;;
75012;SDS011;63567;49.956;20.130;2023-04-09T10:44:23;18.38;;;12.95;;
75012;SDS011;63567;49.956;20.130;2023-04-09T10:46:53;15.07;;;11.77;;
75012;SDS011;63567;49.956;20.130;2023-04-09T10:49:21;17.52;;;13.20;;
75012;SDS011;63567;49.956;20.130;2023-04-09T10:52:00;18.92;;;11.32;;
75012;SDS011;63567;49.956;20.130;2023-04-09T11:01:58;19.03;;;13.00;;
75012;SDS011;63567;49.956;20.130;2023-04-09T11:04:23;20.00;;;12.60;;
75012;SDS011;63567;49.956;20.130;2023-04-09T11:07:03;16.55;;;10.90;;
75012;SDS011;63567;49.956;20.130;2023-04-09T11:09:33;21.85;;;13.85;;
75012;SDS011;63567;49.956;20.130;2023-04-09T11:11:59;18.02;;;13.40;;
75012;SDS011;63567;49.956;20.130;2023-04-09T11:14:25;18.50;;;13.02;;
75012;SDS011;63567;49.956;20.130;2023-04-09T11:16:51;14.43;;;10.57;;
75012;SDS011;63567;49.956;20.130;2023-04-09T11:19:17;15.57;;;10.00;;
75012;SDS011;63567;49.956;20.130;2023-04-09T11:21:44;17.98;;;12.60;;
75012;SDS011;63567;49.956;20.130;2023-04-09T11:24:13;17.73;;;12.35;;
75012;SDS011;63567;49.956;20.130;2023-04-09T11:26:39;17.23;;;12.05;;
75012;SDS011;63567;49.956;20.130;2023-04-09T11:29:05;16.08;;;10.90;;
75012;SDS011;63567;49.956;20.130;2023-04-09T11:31:34;17.58;;;12.40;;
75012;SDS011;63567;49.956;20.130;2023-04-09T11:34:00;14.32;;;11.52;;
75012;SDS011;63567;49.956;20.130;2023-04-09T11:36:26;14.77;;;10.57;;
75012;SDS011;63567;49.956;20.130;2023-04-09T11:38:52;15.70;;;11.48;;
75012;SDS011;63567;49.956;20.130;2023-04-09T11:41:34;16.08;;;11.75;;
75012;SDS011;63567;49.956;20.130;2023-04-09T11:44:04;17.50;;;11.43;;
75012;SDS011;63567;49.956;20.130;2023-04-09T11:46:31;16.67;;;12.00;;
75012;SDS011;63567;49.956;20.130;2023-04-09T11:48:58;17.88;;;12.43;;
75012;SDS011;63567;49.956;20.130;2023-04-09T11:51:23;16.55;;;11.85;;
75012;SDS011;63567;49.956;20.130;2023-04-09T11:53:51;15.70;;;11.70;;
75012;SDS011;63567;49.956;20.130;2023-04-09T11:56:16;17.27;;;11.40;;
75012;SDS011;63567;49.956;20.130;2023-04-09T11:58:45;16.08;;;12.20;;
75012;SDS011;63567;49.956;20.130;2023-04-09T12:01:12;16.35;;;11.73;;
75012;SDS011;63567;49.956;20.130;2023-04-09T12:03:37;18.02;;;13.10;;
75012;SDS011;63567;49.956;20.130;2023-04-09T12:06:04;17.45;;;12.45;;
75012;SDS011;63567;49.956;20.130;2023-04-09T12:08:32;15.82;;;12.13;;
75012;SDS011;63567;49.956;20.130;2023-04-09T12:11:11;14.35;;;10.15;;
75012;SDS011;63567;49.956;20.130;2023-04-09T12:13:38;13.25;;;9.50;;
75012;SDS011;63567;49.956;20.130;2023-04-09T12:16:08;14.48;;;11.18;;
75012;SDS011;63567;49.956;20.130;2023-04-09T12:18:34;15.48;;;11.32;;
75012;SDS011;63567;49.956;20.130;2023-04-09T12:21:01;16.65;;;12.15;;
75012;SDS011;63567;49.956;20.130;2023-04-09T12:23:26;16.30;;;12.00;;
75012;SDS011;63567;49.956;20.130;2023-04-09T12:25:52;15.30;;;11.35;;
75012;SDS011;63567;49.956;20.130;2023-04-09T12:28:19;14.43;;;10.07;;
75012;SDS011;63567;49.956;20.130;2023-04-09T12:30:45;16.95;;;10.55;;
75012;SDS011;63567;49.956;20.130;2023-04-09T12:33:10;18.17;;;11.65;;
75012;SDS011;63567;49.956;20.130;2023-04-09T12:35:36;16.70;;;12.55;;
75012;SDS011;63567;49.956;20.130;2023-04-09T12:38:02;17.70;;;11.57;;
75012;SDS011;63567;49.956;20.130;2023-04-09T12:40:29;16.33;;;11.52;;
75012;SDS011;63567;49.956;20.130;2023-04-09T12:42:54;17.75;;;11.63;;
75012;SDS011;63567;49.956;20.130;2023-04-09T12:45:20;18.42;;;11.90;;
75012;SDS011;63567;49.956;20.130;2023-04-09T12:47:46;17.92;;;12.50;;
75012;SDS011;63567;49.956;20.130;2023-04-09T12:50:12;18.63;;;12.65;;
75012;SDS011;63567;49.956;20.130;2023-04-09T12:52:39;19.00;;;11.63;;
75012;SDS011;63567;49.956;20.130;2023-04-09T12:55:04;15.70;;;11.50;;
75012;SDS011;63567;49.956;20.130;2023-04-09T12:57:31;17.38;;;11.02;;
75012;SDS011;63567;49.956;20.130;2023-04-09T12:59:56;16.63;;;11.52;;
75012;SDS011;63567;49.956;20.130;2023-04-09T13:02:22;17.65;;;11.65;;
75012;SDS011;63567;49.956;20.130;2023-04-09T13:04:47;17.08;;;11.90;;
75012;SDS011;63567;49.956;20.130;2023-04-09T13:07:14;17.75;;;11.68;;
75012;SDS011;63567;49.956;20.130;2023-04-09T13:09:41;15.88;;;11.43;;
75012;SDS011;63567;49.956;20.130;2023-04-09T13:12:06;16.88;;;11.70;;
75012;SDS011;63567;49.956;20.130;2023-04-09T13:14:32;17.53;;;12.50;;
75012;SDS011;63567;49.956;20.130;2023-04-09T13:16:57;18.83;;;13.03;;
75012;SDS011;63567;49.956;20.130;2023-04-09T13:19:23;20.42;;;13.38;;
75012;SDS011;63567;49.956;20.130;2023-04-09T13:21:48;21.00;;;13.38;;
75012;SDS011;63567;49.956;20.130;2023-04-09T13:24:14;20.85;;;13.73;;
75012;SDS011;63567;49.956;20.130;2023-04-09T13:26:39;16.77;;;11.10;;
75012;SDS011;63567;49.956;20.130;2023-04-09T13:29:05;17.80;;;12.40;;
75012;SDS011;63567;49.956;20.130;2023-04-09T13:31:32;19.20;;;13.27;;
75012;SDS011;63567;49.956;20.130;2023-04-09T13:34:00;18.60;;;11.90;;
75012;SDS011;63567;49.956;20.130;2023-04-09T13:36:26;16.77;;;12.27;;
75012;SDS011;63567;49.956;20.130;2023-04-09T13:38:52;16.92;;;11.10;;
75012;SDS011;63567;49.956;20.130;2023-04-09T13:41:18;16.98;;;11.07;;
75012;SDS011;63567;49.956;20.130;2023-04-09T13:43:44;20.45;;;12.52;;
75012;SDS011;63567;49.956;20.130;2023-04-09T13:46:09;18.13;;;12.23;;
75012;SDS011;63567;49.956;20.130;2023-04-09T13:48:34;17.60;;;12.65;;
75012;SDS011;63567;49.956;20.130;2023-04-09T13:51:00;17.40;;;11.07;;
75012;SDS011;63567;49.956;20.130;2023-04-09T13:53:25;18.25;;;13.30;;
75012;SDS011;63567;49.956;20.130;2023-04-09T13:55:51;17.45;;;11.63;;
75012;SDS011;63567;49.956;20.130;2023-04-09T13:58:16;19.37;;;13.53;;
75012;SDS011;63567;49.956;20.130;2023-04-09T14:00:42;19.13;;;13.48;;
75012;SDS011;63567;49.956;20.130;2023-04-09T14:03:07;19.25;;;12.70;;
75012;SDS011;63567;49.956;20.130;2023-04-09T14:05:33;19.67;;;12.98;;
75012;SDS011;63567;49.956;20.130;2023-04-09T14:07:59;16.83;;;11.40;;
75012;SDS011;63567;49.956;20.130;2023-04-09T14:10:24;17.55;;;12.23;;
75012;SDS011;63567;49.956;20.130;2023-04-09T14:12:51;17.48;;;12.93;;
75012;SDS011;63567;49.956;20.130;2023-04-09T14:15:17;16.63;;;12.13;;
75012;SDS011;63567;49.956;20.130;2023-04-09T14:17:42;16.63;;;12.13;;
75012;SDS011;63567;49.956;20.130;2023-04-09T14:20:08;18.15;;;12.75;;
75012;SDS011;63567;49.956;20.130;2023-04-09T14:22:33;16.70;;;12.23;;
75012;SDS011;63567;49.956;20.130;2023-04-09T14:24:59;14.15;;;10.70;;
75012;SDS011;63567;49.956;20.130;2023-04-09T14:27:24;13.23;;;9.57;;
75012;SDS011;63567;49.956;20.130;2023-04-09T14:29:50;13.80;;;10.65;;
75012;SDS011;63567;49.956;20.130;2023-04-09T14:32:16;14.77;;;11.43;;